createdAt,value
2022-10-22T00:02:20.065Z,64.15
2022-10-22T00:04:48.825Z,64.22
2022-10-22T00:07:17.488Z,64.09
2022-10-22T00:09:44.138Z,64.21
2022-10-22T00:12:14.858Z,64.01
2022-10-22T00:14:42.123Z,64.00
2022-10-22T00:17:11.454Z,63.91
2022-10-22T00:19:39.298Z,63.84
2022-10-22T00:22:07.874Z,63.90
2022-10-22T00:24:37.067Z,63.95
2022-10-22T00:27:04.621Z,63.87
2022-10-22T00:29:31.571Z,63.87
2022-10-22T00:31:58.209Z,64.09
2022-10-22T00:34:25.517Z,64.51
2022-10-22T00:36:53.013Z,64.28
2022-10-22T00:39:23.002Z,64.16
2022-10-22T00:41:51.975Z,64.94
2022-10-22T00:44:50.055Z,64.66
2022-10-22T00:47:18.264Z,65.20
2022-10-22T00:49:46.347Z,64.88
2022-10-22T00:52:13.861Z,64.59
2022-10-22T00:54:41.534Z,64.96
2022-10-22T00:57:08.919Z,64.81
2022-10-22T00:59:37.409Z,64.66
2022-10-22T01:02:04.011Z,64.48
2022-10-22T01:04:30.571Z,64.58
2022-10-22T01:06:59.492Z,64.62
2022-10-22T01:09:41.865Z,65.35
2022-10-22T01:12:34.583Z,65.03
2022-10-22T01:15:16.006Z,65.45
2022-10-22T01:18:02.305Z,65.21
2022-10-22T01:20:52.711Z,64.93
2022-10-22T01:23:41.484Z,65.82
2022-10-22T01:26:32.850Z,65.36
2022-10-22T01:29:10.876Z,65.29
2022-10-22T01:31:44.105Z,65.41
2022-10-22T01:34:15.965Z,66.28
2022-10-22T01:36:44.959Z,66.65
2022-10-22T01:39:14.757Z,65.72
2022-10-22T01:41:45.462Z,65.82
2022-10-22T01:44:29.062Z,65.70
2022-10-22T01:47:15.630Z,65.71
2022-10-22T01:50:05.311Z,66.48
2022-10-22T01:52:52.475Z,66.17
2022-10-22T01:55:30.301Z,66.52
2022-10-22T01:58:13.728Z,66.55
2022-10-22T02:00:48.087Z,66.33
2022-10-22T02:03:23.010Z,66.30
2022-10-22T02:05:56.989Z,66.26
2022-10-22T02:08:28.092Z,66.50
2022-10-22T02:10:56.918Z,66.30
2022-10-22T02:13:36.945Z,66.04
2022-10-22T02:16:07.811Z,66.02
2022-10-22T02:18:39.452Z,65.87
2022-10-22T02:23:33.739Z,65.82
2022-10-22T02:26:06.805Z,65.68
2022-10-22T02:28:42.903Z,65.85
2022-10-22T02:31:16.432Z,65.67
2022-10-22T02:33:48.251Z,65.55
2022-10-22T02:36:16.993Z,65.57
2022-10-22T02:38:46.950Z,65.41
2022-10-22T02:41:15.562Z,65.40
2022-10-22T02:43:43.753Z,65.84
2022-10-22T02:46:11.179Z,66.11
2022-10-22T02:48:37.658Z,66.74
2022-10-22T02:51:04.381Z,66.29
2022-10-22T02:53:33.572Z,67.00
2022-10-22T02:56:00.189Z,66.62
2022-10-22T02:58:27.079Z,67.02
2022-10-22T03:00:54.028Z,67.13
2022-10-22T03:03:20.715Z,66.58
2022-10-22T03:05:47.368Z,66.53
2022-10-22T03:08:13.911Z,67.07
2022-10-22T03:10:40.675Z,66.99
2022-10-22T03:13:07.219Z,67.35
2022-10-22T03:15:33.779Z,66.93
2022-10-22T03:18:00.595Z,67.49
2022-10-22T03:20:27.247Z,68.99
2022-10-22T03:22:55.634Z,67.83
2022-10-22T03:25:24.790Z,67.38
2022-10-22T03:27:55.442Z,67.40
2022-10-22T03:30:22.011Z,68.07
2022-10-22T03:32:48.589Z,67.79
2022-10-22T03:35:15.233Z,68.45
2022-10-22T03:37:42.301Z,68.12
2022-10-22T03:40:10.829Z,68.68
2022-10-22T03:42:37.685Z,69.68
2022-10-22T03:45:05.107Z,70.89
2022-10-22T03:47:31.667Z,72.90
2022-10-22T03:49:58.245Z,71.70
2022-10-22T03:52:25.141Z,70.74
2022-10-22T03:54:51.752Z,71.12
2022-10-22T03:57:18.649Z,70.80
2022-10-22T03:59:46.123Z,72.02
2022-10-22T04:02:14.084Z,71.18
2022-10-22T04:04:40.918Z,71.13
2022-10-22T04:07:08.193Z,71.07
2022-10-22T04:09:35.088Z,71.00
2022-10-22T04:12:05.322Z,71.19
2022-10-22T04:14:32.230Z,71.05
2022-10-22T04:16:58.864Z,70.53
2022-10-22T04:19:25.439Z,70.76
2022-10-22T04:21:51.982Z,71.37
2022-10-22T04:24:18.593Z,70.48
2022-10-22T04:26:45.181Z,70.21
2022-10-22T04:29:15.934Z,70.13
2022-10-22T04:31:43.114Z,70.00
2022-10-22T04:34:11.004Z,70.15
2022-10-22T04:36:37.623Z,70.86
2022-10-22T04:39:05.384Z,71.73
2022-10-22T04:41:35.494Z,70.92
2022-10-22T04:44:03.162Z,71.69
2022-10-22T04:46:32.426Z,70.82
2022-10-22T04:48:59.437Z,70.93
2022-10-22T04:51:27.314Z,70.95
2022-10-22T04:53:54.298Z,71.29
2022-10-22T04:56:24.276Z,71.22
2022-10-22T04:58:54.158Z,71.04
2022-10-22T05:01:24.665Z,70.92
2022-10-22T05:03:53.162Z,72.11
2022-10-22T05:06:21.092Z,71.23
2022-10-22T05:08:51.510Z,71.45
2022-10-22T05:11:21.821Z,71.29
2022-10-22T05:13:49.235Z,70.68
2022-10-22T05:16:16.185Z,71.02
2022-10-22T05:18:44.699Z,70.79
2022-10-22T05:21:14.561Z,70.70
2022-10-22T05:23:41.767Z,70.56
2022-10-22T05:26:10.539Z,70.38
2022-10-22T05:28:38.695Z,70.10
2022-10-22T05:31:08.086Z,70.56
2022-10-22T05:33:35.145Z,70.29
2022-10-22T05:36:04.337Z,70.46
2022-10-22T05:38:32.779Z,70.40
2022-10-22T05:41:01.734Z,70.48
2022-10-22T05:43:29.097Z,70.47
2022-10-22T05:45:56.167Z,70.25
2022-10-22T05:48:22.849Z,70.67
2022-10-22T05:50:50.305Z,70.39
2022-10-22T05:53:18.205Z,70.29
2022-10-22T05:55:45.501Z,70.54
2022-10-22T05:58:13.124Z,70.44
2022-10-22T06:00:40.272Z,70.24
2022-10-22T06:03:07.004Z,70.03
2022-10-22T06:05:35.846Z,69.80
2022-10-22T06:08:03.651Z,69.80
2022-10-22T06:10:31.061Z,69.64
2022-10-22T06:12:57.765Z,69.32
2022-10-22T06:15:24.316Z,69.35
2022-10-22T06:17:50.947Z,68.95
2022-10-22T06:20:17.868Z,69.14
2022-10-22T06:22:44.728Z,68.70
2022-10-22T06:25:11.902Z,68.58
2022-10-22T06:27:38.691Z,68.29
2022-10-22T06:30:06.090Z,68.40
2022-10-22T06:32:32.708Z,68.20
2022-10-22T06:34:59.456Z,68.21
2022-10-22T06:37:26.277Z,68.17
2022-10-22T06:39:53.022Z,68.18
2022-10-22T06:42:19.810Z,67.75
2022-10-22T06:44:47.733Z,67.50
2022-10-22T06:47:14.465Z,67.51
2022-10-22T06:49:41.998Z,67.52
2022-10-22T06:52:08.640Z,67.42
2022-10-22T06:54:35.270Z,67.17
2022-10-22T06:57:01.888Z,66.82
2022-10-22T06:59:28.680Z,66.97
2022-10-22T07:01:55.284Z,66.93
2022-10-22T07:04:22.030Z,66.92
2022-10-22T07:06:48.696Z,66.74
2022-10-22T07:09:15.520Z,66.75
2022-10-22T07:11:45.211Z,66.62
2022-10-22T07:14:13.288Z,66.17
2022-10-22T07:16:50.851Z,65.87
2022-10-22T07:19:17.534Z,65.84
2022-10-22T07:21:44.265Z,65.78
2022-10-22T07:24:11.197Z,65.85
2022-10-22T07:26:37.871Z,65.41
2022-10-22T07:29:05.832Z,65.10
2022-10-22T07:31:32.388Z,64.91
2022-10-22T07:33:59.016Z,65.25
2022-10-22T07:36:26.171Z,65.29
2022-10-22T07:38:55.966Z,64.91
2022-10-22T07:41:25.622Z,65.09
2022-10-22T07:43:52.305Z,65.09
2022-10-22T07:46:19.812Z,65.07
2022-10-22T07:48:46.699Z,64.81
2022-10-22T07:51:14.722Z,63.77
2022-10-22T07:53:41.400Z,63.16
2022-10-22T07:56:08.649Z,63.00
2022-10-22T07:58:35.557Z,62.82
2022-10-22T08:01:05.034Z,62.08
2022-10-22T08:03:32.471Z,61.83
2022-10-22T08:06:00.582Z,62.17
2022-10-22T08:08:30.719Z,62.16
2022-10-22T08:11:00.087Z,62.21
2022-10-22T08:13:29.738Z,61.70
2022-10-22T08:15:57.995Z,61.05
2022-10-22T08:18:25.856Z,60.70
2022-10-22T08:20:52.885Z,61.77
2022-10-22T08:23:24.409Z,60.41
2022-10-22T08:25:54.413Z,59.04
2022-10-22T08:28:22.113Z,58.33
2022-10-22T08:30:49.329Z,58.32
2022-10-22T08:33:15.993Z,58.34
2022-10-22T08:35:49.040Z,57.95
2022-10-22T08:38:15.549Z,58.06
2022-10-22T08:40:46.796Z,58.92
2022-10-22T08:43:52.295Z,57.72
2022-10-22T08:46:36.716Z,57.63
2022-10-22T08:51:39.891Z,57.35
2022-10-22T08:54:26.511Z,58.16
2022-10-22T08:57:22.318Z,57.92
2022-10-22T09:00:12.981Z,56.18
2022-10-22T09:03:02.522Z,56.71
2022-10-22T09:05:55.291Z,55.62
2022-10-22T09:08:22.629Z,56.31
2022-10-22T09:10:55.816Z,56.60
2022-10-22T09:13:23.525Z,56.47
2022-10-22T09:15:55.726Z,56.19
2022-10-22T09:18:53.551Z,55.67
2022-10-22T09:21:43.632Z,54.63
2022-10-22T09:24:32.177Z,54.43
2022-10-22T09:27:02.066Z,55.27
2022-10-22T09:29:37.434Z,55.76
2022-10-22T09:32:04.759Z,54.76
2022-10-22T09:34:32.127Z,54.60
2022-10-22T09:37:17.742Z,54.53
2022-10-22T09:39:47.336Z,54.84
2022-10-22T09:42:16.231Z,54.26
2022-10-22T09:44:46.170Z,53.81
2022-10-22T09:47:43.446Z,53.90
2022-10-22T09:50:40.482Z,53.66
2022-10-22T09:53:28.542Z,53.32
2022-10-22T09:55:58.472Z,52.89
2022-10-22T09:58:26.154Z,52.44
2022-10-22T10:00:56.637Z,51.43
2022-10-22T10:03:27.459Z,50.81
2022-10-22T10:06:01.554Z,51.29
2022-10-22T10:08:34.137Z,49.84
2022-10-22T10:11:34.454Z,49.03
2022-10-22T10:14:15.149Z,48.54
2022-10-22T10:16:55.709Z,48.29
2022-10-22T10:19:49.572Z,48.37
2022-10-22T10:22:47.420Z,47.95
2022-10-22T10:25:31.430Z,48.23
2022-10-22T10:28:12.305Z,49.06
2022-10-22T10:30:51.260Z,48.41
2022-10-22T10:33:37.605Z,46.07
2022-10-22T10:36:16.698Z,45.66
2022-10-22T10:39:00.782Z,45.00
2022-10-22T10:41:48.311Z,45.35
2022-10-22T10:44:36.590Z,45.20
2022-10-22T10:47:30.526Z,44.46
2022-10-22T10:50:19.037Z,44.58
2022-10-22T10:53:09.597Z,43.73
2022-10-22T10:55:47.754Z,42.89
2022-10-22T10:58:36.976Z,42.01
2022-10-22T11:01:19.238Z,41.83
2022-10-22T11:04:09.969Z,41.32
2022-10-22T11:06:38.716Z,41.05
2022-10-22T11:09:18.052Z,40.69
2022-10-22T11:11:51.543Z,40.11
2022-10-22T11:14:26.467Z,39.25
2022-10-22T11:17:03.850Z,39.11
2022-10-22T11:19:53.921Z,38.84
2022-10-22T11:22:31.498Z,37.94
2022-10-22T11:25:14.953Z,37.07
2022-10-22T11:27:54.052Z,37.77
2022-10-22T11:30:23.393Z,37.63
2022-10-22T11:32:55.603Z,37.30
2022-10-22T11:35:28.446Z,37.10
2022-10-22T11:37:57.332Z,37.34
2022-10-22T11:40:46.672Z,37.36
2022-10-22T11:43:32.009Z,36.73
2022-10-22T11:46:32.436Z,36.75
2022-10-22T11:49:21.464Z,36.31
2022-10-22T11:51:48.051Z,36.13
2022-10-22T11:54:41.953Z,35.94
2022-10-22T11:57:19.313Z,35.36
2022-10-22T11:59:52.078Z,34.48
2022-10-22T12:02:42.476Z,34.25
2022-10-22T12:05:31.465Z,35.25
2022-10-22T12:08:05.829Z,35.79
2022-10-22T12:10:48.023Z,36.07
2022-10-22T12:13:23.941Z,35.98
2022-10-22T12:15:55.853Z,36.52
2022-10-22T12:18:27.041Z,36.71
2022-10-22T12:20:54.652Z,36.85
2022-10-22T12:23:28.345Z,36.62
2022-10-22T12:25:54.965Z,37.41
2022-10-22T12:28:22.128Z,38.06
2022-10-22T12:30:48.766Z,38.32
2022-10-22T12:33:22.816Z,38.92
2022-10-22T12:35:53.530Z,39.67
2022-10-22T12:38:22.382Z,40.13
2022-10-22T12:40:53.472Z,40.58
2022-10-22T12:43:29.320Z,41.00
2022-10-22T12:46:00.249Z,41.62
2022-10-22T12:48:31.392Z,42.04
2022-10-22T12:51:00.549Z,42.32
2022-10-22T12:53:34.570Z,42.92
2022-10-22T12:56:05.885Z,43.48
2022-10-22T12:58:39.031Z,43.81
2022-10-22T13:01:06.145Z,43.84
2022-10-22T13:03:38.114Z,43.83
2022-10-22T13:06:14.284Z,43.93
2022-10-22T13:08:40.819Z,44.30
2022-10-22T13:11:10.533Z,44.35
2022-10-22T13:13:43.076Z,44.62
2022-10-22T13:16:20.419Z,45.37
2022-10-22T13:18:48.194Z,45.44
2022-10-22T13:21:33.237Z,45.37
2022-10-22T13:24:02.939Z,46.08
2022-10-22T13:26:33.733Z,46.41
2022-10-22T13:29:02.095Z,46.43
2022-10-22T13:31:32.833Z,47.09
2022-10-22T13:34:08.534Z,47.18
2022-10-22T13:36:37.548Z,47.15
2022-10-22T13:39:07.469Z,47.48
2022-10-22T13:44:04.462Z,47.67
2022-10-22T13:46:31.020Z,48.28
2022-10-22T13:48:59.282Z,48.82
2022-10-22T13:51:34.228Z,48.66
2022-10-22T13:54:02.900Z,48.79
2022-10-22T13:56:29.340Z,49.40
2022-10-22T13:58:55.819Z,49.32
2022-10-22T14:01:26.003Z,49.99
2022-10-22T14:03:57.186Z,50.34
2022-10-22T14:06:28.130Z,50.61
2022-10-22T14:08:59.250Z,50.65
2022-10-22T14:11:26.775Z,50.94
2022-10-22T14:13:54.119Z,50.51
2022-10-22T14:16:23.417Z,51.26
2022-10-22T14:18:50.632Z,51.47
2022-10-22T14:21:18.549Z,51.20
2022-10-22T14:23:47.089Z,51.57
2022-10-22T14:26:32.480Z,51.77
2022-10-22T14:29:15.951Z,51.72
2022-10-22T14:31:44.363Z,52.02
2022-10-22T14:34:14.631Z,51.85
2022-10-22T14:36:43.110Z,51.69
2022-10-22T14:39:09.665Z,51.87
2022-10-22T14:41:37.140Z,52.21
2022-10-22T14:44:11.913Z,52.09
2022-10-22T14:46:39.627Z,52.13
2022-10-22T14:49:06.063Z,52.39
2022-10-22T14:51:32.572Z,52.37
2022-10-22T14:53:59.107Z,52.33
2022-10-22T14:56:25.580Z,53.82
2022-10-22T14:58:53.135Z,53.49
2022-10-22T15:01:22.552Z,53.40
2022-10-22T15:03:49.150Z,53.18
2022-10-22T15:06:15.971Z,53.29
2022-10-22T15:08:44.556Z,53.92
2022-10-22T15:11:12.645Z,54.88
2022-10-22T15:13:40.721Z,54.68
2022-10-22T15:16:09.801Z,54.82
2022-10-22T15:18:36.582Z,54.79
2022-10-22T15:21:15.034Z,54.87
2022-10-22T15:23:42.993Z,55.77
2022-10-22T15:26:11.230Z,55.26
2022-10-22T15:28:39.174Z,55.25
2022-10-22T15:31:06.666Z,55.27
2022-10-22T15:33:33.378Z,55.10
2022-10-22T15:36:13.695Z,55.54
2022-10-22T15:38:41.213Z,55.77
2022-10-22T15:41:09.516Z,56.09
2022-10-22T15:43:36.757Z,55.85
2022-10-22T15:46:13.683Z,55.61
2022-10-22T15:48:41.129Z,56.32
2022-10-22T15:51:10.720Z,57.29
2022-10-22T15:53:38.219Z,58.51
2022-10-22T15:56:05.105Z,57.51
2022-10-22T15:58:34.631Z,57.15
2022-10-22T16:01:07.576Z,57.85
2022-10-22T16:03:34.933Z,57.97
2022-10-22T16:06:02.208Z,57.34
2022-10-22T16:08:29.419Z,57.64
2022-10-22T16:10:57.947Z,58.12
2022-10-22T16:13:25.954Z,58.49
2022-10-22T16:15:53.836Z,58.35
2022-10-22T16:18:21.036Z,57.88
2022-10-22T16:20:47.700Z,57.83
2022-10-22T16:23:18.095Z,57.76
2022-10-22T16:25:45.681Z,57.68
2022-10-22T16:28:12.438Z,57.83
2022-10-22T16:30:39.956Z,57.98
2022-10-22T16:33:07.615Z,58.40
2022-10-22T16:35:35.117Z,59.13
2022-10-22T16:38:01.963Z,59.14
2022-10-22T16:40:28.552Z,59.33
2022-10-22T16:42:55.205Z,58.78
2022-10-22T16:45:21.835Z,59.00
2022-10-22T16:47:49.031Z,58.66
2022-10-22T16:50:15.724Z,58.20
2022-10-22T16:52:50.330Z,58.18
2022-10-22T16:55:17.463Z,58.27
2022-10-22T16:57:51.244Z,58.92
2022-10-22T17:00:19.253Z,58.88
2022-10-22T17:02:52.124Z,59.59
2022-10-22T17:05:19.599Z,59.20
2022-10-22T17:07:46.442Z,59.27
2022-10-22T17:10:13.581Z,60.09
2022-10-22T17:12:40.672Z,60.26
2022-10-22T17:15:08.138Z,60.63
2022-10-22T17:17:35.078Z,60.40
2022-10-22T17:20:01.917Z,59.92
2022-10-22T17:22:28.625Z,60.03
2022-10-22T17:25:07.364Z,59.86
2022-10-22T17:27:34.002Z,59.63
2022-10-22T17:30:00.518Z,59.48
2022-10-22T17:32:28.625Z,59.54
2022-10-22T17:34:55.556Z,59.61
2022-10-22T17:37:22.720Z,60.14
2022-10-22T17:39:49.368Z,59.93
2022-10-22T17:42:16.413Z,59.59
2022-10-22T17:44:42.973Z,59.91
2022-10-22T17:47:09.701Z,59.92
2022-10-22T17:49:36.306Z,60.03
2022-10-22T17:52:03.139Z,59.80
2022-10-22T17:54:29.872Z,59.88
2022-10-22T17:56:56.400Z,59.99
2022-10-22T17:59:22.925Z,60.15
2022-10-22T18:01:49.673Z,59.91
2022-10-22T18:04:25.239Z,59.83
2022-10-22T18:07:08.076Z,59.87
2022-10-22T18:09:34.809Z,59.96
2022-10-22T18:12:01.581Z,59.93
2022-10-22T18:14:28.835Z,59.67
2022-10-22T18:16:55.468Z,60.98
2022-10-22T18:19:23.945Z,60.46
2022-10-22T18:21:50.813Z,60.23
2022-10-22T18:24:18.118Z,60.76
2022-10-22T18:26:46.949Z,60.67
2022-10-22T18:29:16.339Z,60.56
2022-10-22T18:31:43.622Z,60.70
2022-10-22T18:34:11.011Z,60.36
2022-10-22T18:36:37.980Z,60.55
2022-10-22T18:39:04.763Z,60.54
2022-10-22T18:41:32.761Z,60.72
2022-10-22T18:44:02.020Z,60.94
2022-10-22T18:46:32.107Z,60.88
2022-10-22T18:48:58.839Z,60.82
2022-10-22T18:51:30.047Z,60.98
2022-10-22T18:54:05.521Z,61.02
2022-10-22T18:56:44.201Z,60.97
2022-10-22T18:59:18.649Z,60.92
2022-10-22T19:01:45.253Z,60.89
2022-10-22T19:04:13.116Z,60.78
2022-10-22T19:06:42.996Z,61.09
2022-10-22T19:09:13.124Z,61.24
2022-10-22T19:11:39.595Z,61.25
2022-10-22T19:14:05.987Z,61.95
2022-10-22T19:16:34.368Z,61.95
2022-10-22T19:19:03.648Z,62.99
2022-10-22T19:21:31.568Z,62.67
2022-10-22T19:23:59.304Z,62.76
2022-10-22T19:26:28.393Z,64.19
2022-10-22T19:28:56.377Z,64.46
2022-10-22T19:31:26.727Z,67.36
2022-10-22T19:33:54.745Z,70.04
2022-10-22T19:36:24.566Z,68.42
2022-10-22T19:38:51.654Z,66.99
2022-10-22T19:41:25.641Z,66.64
2022-10-22T19:43:54.280Z,66.67
2022-10-22T19:46:21.941Z,66.72
2022-10-22T19:48:50.549Z,66.47
2022-10-22T19:51:22.280Z,66.32
2022-10-22T19:53:49.942Z,66.41
2022-10-22T19:56:19.445Z,66.55
2022-10-22T19:58:46.206Z,66.65
2022-10-22T20:01:16.494Z,66.76
2022-10-22T20:03:43.345Z,67.32
2022-10-22T20:06:12.165Z,66.99
2022-10-22T20:08:39.240Z,66.59
2022-10-22T20:11:10.119Z,66.45
2022-10-22T20:16:04.924Z,66.61
2022-10-22T20:18:33.540Z,66.26
2022-10-22T20:21:04.896Z,66.30
2022-10-22T20:23:32.532Z,66.78
2022-10-22T20:25:59.642Z,66.69
2022-10-22T20:28:26.340Z,66.29
2022-10-22T20:30:52.879Z,66.20
2022-10-22T20:33:19.500Z,66.00
2022-10-22T20:35:46.263Z,66.20
2022-10-22T20:38:14.505Z,66.22
2022-10-22T20:40:41.331Z,65.94
2022-10-22T20:43:13.428Z,66.05
2022-10-22T20:45:39.945Z,68.05
2022-10-22T20:48:06.737Z,67.81
2022-10-22T20:50:33.559Z,67.20
2022-10-22T20:53:00.122Z,68.32
2022-10-22T20:55:27.074Z,68.13
2022-10-22T20:57:54.588Z,68.10
2022-10-22T21:00:21.262Z,67.58
2022-10-22T21:02:47.789Z,67.61
2022-10-22T21:05:14.529Z,67.65
2022-10-22T21:07:41.521Z,67.44
2022-10-22T21:10:08.511Z,67.41
2022-10-22T21:12:35.410Z,69.90
2022-10-22T21:15:01.990Z,70.04
2022-10-22T21:17:28.623Z,72.15
2022-10-22T21:19:55.228Z,70.98
2022-10-22T21:22:21.807Z,70.36
2022-10-22T21:24:48.818Z,70.04
2022-10-22T21:27:15.582Z,69.92
2022-10-22T21:29:42.227Z,69.83
2022-10-22T21:32:08.920Z,70.55
2022-10-22T21:34:38.811Z,70.42
2022-10-22T21:37:05.902Z,70.89
2022-10-22T21:39:32.442Z,70.47
2022-10-22T21:41:59.083Z,70.39
2022-10-22T21:44:25.669Z,70.49
2022-10-22T21:46:52.734Z,70.47
2022-10-22T21:49:19.420Z,71.95
2022-10-22T21:51:46.191Z,71.74
2022-10-22T21:54:12.815Z,71.36
2022-10-22T21:56:40.949Z,71.55
2022-10-22T21:59:07.659Z,71.70
2022-10-22T22:01:34.822Z,71.61
2022-10-22T22:04:01.792Z,71.97
2022-10-22T22:06:33.202Z,72.06
2022-10-22T22:09:03.512Z,72.54
2022-10-22T22:11:30.498Z,72.83
2022-10-22T22:13:58.054Z,73.30
2022-10-22T22:16:28.848Z,73.79
2022-10-22T22:18:59.770Z,74.15
2022-10-22T22:21:26.978Z,74.62
2022-10-22T22:23:53.748Z,73.79
2022-10-22T22:26:26.694Z,73.58
2022-10-22T22:28:58.436Z,73.45
2022-10-22T22:31:29.111Z,74.36
2022-10-22T22:34:13.968Z,73.60
2022-10-22T22:36:44.769Z,73.73
2022-10-22T22:39:14.115Z,73.64
2022-10-22T22:41:42.096Z,73.49
2022-10-22T22:44:09.029Z,73.50
2022-10-22T22:46:35.813Z,73.56
2022-10-22T22:49:03.527Z,73.63
2022-10-22T22:51:31.058Z,73.37
2022-10-22T22:53:59.610Z,73.14
2022-10-22T22:56:28.830Z,72.97
2022-10-22T22:58:55.857Z,72.89
2022-10-22T23:01:27.815Z,72.63
2022-10-22T23:03:59.299Z,72.73
2022-10-22T23:06:28.641Z,73.45
2022-10-22T23:08:55.869Z,73.32
2022-10-22T23:11:24.438Z,73.18
2022-10-22T23:13:54.352Z,73.18
2022-10-22T23:16:23.230Z,73.24
2022-10-22T23:18:52.613Z,73.41
2022-10-22T23:21:22.311Z,74.69
2022-10-22T23:23:52.794Z,75.63
2022-10-22T23:26:24.565Z,76.58
2022-10-22T23:28:51.489Z,77.09
2022-10-22T23:31:21.121Z,78.19
2022-10-22T23:33:48.261Z,79.19
2022-10-22T23:36:15.175Z,79.75
2022-10-22T23:38:42.948Z,81.34
2022-10-22T23:41:12.784Z,81.38
2022-10-22T23:43:39.573Z,80.59
2022-10-22T23:46:09.880Z,80.24
2022-10-22T23:48:38.628Z,80.03
2022-10-22T23:51:09.639Z,79.99
2022-10-22T23:53:36.815Z,79.60
2022-10-22T23:56:06.734Z,79.61
2022-10-22T23:58:34.695Z,79.59
